createdAt,value
2022-08-29T00:01:51.512Z,6.10
2022-08-29T00:03:57.935Z,4.87
2022-08-29T00:06:00.636Z,5.23
2022-08-29T00:08:03.468Z,5.20
2022-08-29T00:10:08.840Z,6.47
2022-08-29T00:12:11.929Z,6.57
2022-08-29T00:14:21.069Z,5.47
2022-08-29T00:16:32.313Z,5.30
2022-08-29T00:18:35.988Z,5.40
2022-08-29T00:20:37.875Z,6.80
2022-08-29T00:22:40.871Z,5.33
2022-08-29T00:24:44.517Z,6.23
2022-08-29T00:26:47.157Z,5.67
2022-08-29T00:28:50.602Z,5.63
2022-08-29T00:30:52.719Z,5.70
2022-08-29T00:32:54.624Z,5.80
2022-08-29T00:34:58.164Z,6.97
2022-08-29T00:37:01.936Z,5.30
2022-08-29T00:39:09.193Z,5.50
2022-08-29T00:41:15.262Z,5.30
2022-08-29T00:43:18.943Z,5.80
2022-08-29T00:45:20.872Z,6.30
2022-08-29T00:47:30.090Z,5.73
2022-08-29T00:49:42.891Z,5.60
2022-08-29T00:51:48.837Z,6.40
2022-08-29T00:53:56.911Z,6.40
2022-08-29T00:55:59.977Z,5.87
2022-08-29T00:58:16.320Z,5.63
2022-08-29T01:00:19.937Z,5.63
2022-08-29T01:02:22.970Z,6.23
2022-08-29T01:04:25.252Z,6.27
2022-08-29T01:06:29.913Z,6.30
2022-08-29T01:08:33.300Z,7.03
2022-08-29T01:10:55.321Z,6.43
2022-08-29T01:12:57.899Z,6.00
2022-08-29T01:15:03.923Z,5.83
2022-08-29T01:17:10.639Z,6.77
2022-08-29T01:19:36.307Z,6.90
2022-08-29T01:21:53.953Z,6.70
2022-08-29T01:24:32.226Z,6.23
2022-08-29T01:26:35.330Z,6.20
2022-08-29T01:28:44.651Z,6.63
2022-08-29T01:31:10.033Z,5.97
2022-08-29T01:33:12.426Z,6.53
2022-08-29T01:35:14.165Z,6.63
2022-08-29T01:37:18.390Z,6.77
2022-08-29T01:39:22.951Z,6.63
2022-08-29T01:41:25.161Z,6.77
2022-08-29T01:43:28.609Z,7.97
2022-08-29T01:45:30.317Z,7.50
2022-08-29T01:47:39.560Z,7.63
2022-08-29T01:49:42.149Z,6.63
2022-08-29T01:51:46.632Z,6.97
2022-08-29T01:53:49.245Z,7.60
2022-08-29T01:55:51.933Z,7.10
2022-08-29T01:57:54.086Z,6.87
2022-08-29T01:59:59.586Z,7.10
2022-08-29T02:02:15.481Z,7.70
2022-08-29T02:04:17.532Z,7.20
2022-08-29T02:06:20.308Z,7.10
2022-08-29T02:08:22.043Z,7.63
2022-08-29T02:10:25.950Z,6.57
2022-08-29T02:12:27.814Z,7.07
2022-08-29T02:14:30.604Z,6.93
2022-08-29T02:16:37.932Z,7.17
2022-08-29T02:18:42.963Z,6.73
2022-08-29T02:20:46.959Z,6.70
2022-08-29T02:22:48.679Z,6.80
2022-08-29T02:24:50.958Z,6.97
2022-08-29T02:26:54.544Z,6.67
2022-08-29T02:28:58.312Z,6.43
2022-08-29T02:31:01.953Z,6.33
2022-08-29T02:33:05.807Z,6.93
2022-08-29T02:35:12.751Z,6.67
2022-08-29T02:37:15.990Z,6.70
2022-08-29T02:39:18.365Z,6.90
2022-08-29T02:41:20.942Z,7.03
2022-08-29T02:43:25.966Z,7.10
2022-08-29T02:45:29.143Z,6.77
2022-08-29T02:47:37.391Z,8.13
2022-08-29T02:49:39.605Z,7.10
2022-08-29T02:51:42.891Z,6.80
2022-08-29T02:53:47.308Z,7.20
2022-08-29T02:55:49.220Z,6.67
2022-08-29T02:57:55.745Z,7.60
2022-08-29T02:59:59.567Z,7.37
2022-08-29T03:02:01.322Z,7.53
2022-08-29T03:04:08.685Z,7.60
2022-08-29T03:06:10.881Z,6.63
2022-08-29T03:08:14.324Z,7.50
2022-08-29T03:10:18.086Z,7.03
2022-08-29T03:12:21.070Z,6.87
2022-08-29T03:14:26.062Z,8.67
2022-08-29T03:16:27.948Z,9.27
2022-08-29T03:18:30.974Z,8.50
2022-08-29T03:20:39.262Z,7.30
2022-08-29T03:22:42.246Z,7.43
2022-08-29T03:24:47.478Z,8.30
2022-08-29T03:26:54.573Z,8.07
2022-08-29T03:28:58.876Z,9.73
2022-08-29T03:31:03.976Z,7.53
2022-08-29T03:33:11.653Z,8.07
2022-08-29T03:35:15.008Z,7.60
2022-08-29T03:37:16.834Z,7.00
2022-08-29T03:39:21.202Z,7.60
2022-08-29T03:41:28.675Z,7.40
2022-08-29T03:43:30.393Z,7.47
2022-08-29T03:45:32.595Z,6.93
2022-08-29T03:47:35.210Z,7.47
2022-08-29T03:49:37.654Z,8.27
2022-08-29T03:51:39.878Z,8.37
2022-08-29T03:53:43.228Z,7.77
2022-08-29T03:55:49.810Z,6.30
2022-08-29T03:57:54.308Z,6.33
2022-08-29T03:59:57.083Z,6.53
2022-08-29T04:01:58.841Z,6.70
2022-08-29T04:04:03.009Z,7.23
2022-08-29T04:06:06.945Z,7.77
2022-08-29T04:08:09.177Z,7.10
2022-08-29T04:10:16.113Z,7.40
2022-08-29T04:12:19.213Z,7.07
2022-08-29T04:14:21.106Z,8.37
2022-08-29T04:16:30.971Z,7.67
2022-08-29T04:18:32.925Z,8.23
2022-08-29T04:20:42.485Z,8.33
2022-08-29T04:22:46.033Z,8.20
2022-08-29T04:24:55.884Z,7.90
2022-08-29T04:26:59.885Z,7.90
2022-08-29T04:29:02.073Z,9.10
2022-08-29T04:31:03.850Z,8.17
2022-08-29T04:33:06.254Z,8.27
2022-08-29T04:35:10.410Z,8.50
2022-08-29T04:37:12.098Z,8.10
2022-08-29T04:39:15.953Z,7.90
2022-08-29T04:41:17.834Z,8.00
2022-08-29T04:43:20.259Z,7.93
2022-08-29T04:45:23.621Z,8.20
2022-08-29T04:47:26.819Z,8.50
2022-08-29T04:49:31.060Z,8.17
2022-08-29T04:51:35.428Z,8.03
2022-08-29T04:53:40.659Z,7.10
2022-08-29T04:55:42.345Z,7.67
2022-08-29T04:57:48.066Z,7.30
2022-08-29T04:59:56.100Z,7.70
2022-08-29T05:02:00.056Z,7.27
2022-08-29T05:04:02.041Z,8.37
2022-08-29T05:06:08.161Z,8.00
2022-08-29T05:08:14.253Z,7.70
2022-08-29T05:10:19.641Z,7.47
2022-08-29T05:12:22.249Z,8.03
2022-08-29T05:14:23.909Z,7.73
2022-08-29T05:16:25.833Z,8.23
2022-08-29T05:18:28.752Z,8.30
2022-08-29T05:20:32.534Z,8.40
2022-08-29T05:22:35.404Z,8.53
2022-08-29T05:24:38.338Z,9.20
2022-08-29T05:26:43.699Z,9.13
2022-08-29T05:28:49.685Z,9.03
2022-08-29T05:30:53.699Z,8.70
2022-08-29T05:32:56.652Z,8.80
2022-08-29T05:34:58.948Z,8.40
2022-08-29T05:37:03.106Z,8.63
2022-08-29T05:39:05.921Z,9.83
2022-08-29T05:41:10.145Z,9.80
2022-08-29T05:43:12.160Z,9.30
2022-08-29T05:45:18.851Z,9.13
2022-08-29T05:47:21.259Z,10.23
2022-08-29T05:49:25.843Z,9.77
2022-08-29T05:51:27.497Z,8.97
2022-08-29T05:53:29.379Z,10.57
2022-08-29T05:55:33.409Z,9.93
2022-08-29T05:57:36.686Z,10.20
2022-08-29T05:59:40.024Z,10.83
2022-08-29T06:01:43.178Z,8.90
2022-08-29T06:03:47.776Z,10.10
2022-08-29T06:05:52.913Z,9.83
2022-08-29T06:07:57.470Z,9.53
2022-08-29T06:10:03.889Z,9.83
2022-08-29T06:12:07.824Z,9.80
2022-08-29T06:14:09.530Z,9.30
2022-08-29T06:16:18.242Z,10.30
2022-08-29T06:18:26.915Z,10.17
2022-08-29T06:20:39.637Z,9.43
2022-08-29T06:22:41.549Z,9.20
2022-08-29T06:24:46.379Z,10.70
2022-08-29T06:26:51.788Z,9.50
2022-08-29T06:28:57.010Z,9.73
2022-08-29T06:31:10.367Z,9.40
2022-08-29T06:33:13.817Z,9.93
2022-08-29T06:35:17.286Z,10.07
2022-08-29T06:37:20.247Z,10.23
2022-08-29T06:39:23.279Z,10.17
2022-08-29T06:41:26.262Z,9.57
2022-08-29T06:43:31.653Z,8.80
2022-08-29T06:45:42.578Z,7.40
2022-08-29T06:47:47.847Z,7.40
2022-08-29T06:49:50.146Z,7.60
2022-08-29T06:51:57.379Z,8.10
2022-08-29T06:54:03.150Z,6.80
2022-08-29T06:56:06.867Z,7.43
2022-08-29T06:58:14.328Z,6.30
2022-08-29T07:00:22.199Z,6.40
2022-08-29T07:02:26.304Z,6.10
2022-08-29T07:04:31.070Z,6.47
2022-08-29T07:06:33.522Z,6.40
2022-08-29T07:08:38.033Z,5.93
2022-08-29T07:10:47.530Z,5.78
2022-08-29T07:12:51.989Z,6.80
2022-08-29T07:14:55.214Z,5.90
2022-08-29T07:16:57.197Z,6.60
2022-08-29T07:19:01.966Z,5.25
2022-08-29T07:21:08.461Z,5.85
2022-08-29T07:23:11.428Z,5.63
2022-08-29T07:25:14.404Z,5.65
2022-08-29T07:27:17.711Z,5.30
2022-08-29T07:29:21.742Z,5.85
2022-08-29T07:31:24.237Z,5.63
2022-08-29T07:33:29.138Z,5.55
2022-08-29T07:35:31.999Z,5.55
2022-08-29T07:37:34.203Z,5.72
2022-08-29T07:39:40.075Z,5.35
2022-08-29T07:41:44.660Z,5.38
2022-08-29T07:43:47.735Z,4.93
2022-08-29T07:45:51.257Z,5.93
2022-08-29T07:47:53.154Z,5.47
2022-08-29T07:49:54.982Z,5.20
2022-08-29T07:51:57.162Z,5.97
2022-08-29T07:54:00.679Z,4.88
2022-08-29T07:56:09.585Z,5.43
2022-08-29T07:58:12.232Z,5.95
2022-08-29T08:00:15.726Z,5.75
2022-08-29T08:02:18.380Z,5.97
2022-08-29T08:04:20.179Z,5.50
2022-08-29T08:06:24.659Z,6.70
2022-08-29T08:08:30.307Z,5.22
2022-08-29T08:10:33.194Z,5.68
2022-08-29T08:12:35.174Z,5.60
2022-08-29T08:14:37.651Z,5.72
2022-08-29T08:16:44.386Z,5.03
2022-08-29T08:18:47.798Z,6.03
2022-08-29T08:20:50.284Z,5.57
2022-08-29T08:22:53.278Z,5.60
2022-08-29T08:24:56.196Z,4.95
2022-08-29T08:26:57.943Z,5.28
2022-08-29T08:29:00.266Z,4.90
2022-08-29T08:31:06.316Z,5.97
2022-08-29T08:33:11.689Z,5.78
2022-08-29T08:35:19.655Z,5.80
2022-08-29T08:37:27.934Z,4.65
2022-08-29T08:39:32.468Z,5.60
2022-08-29T08:41:54.942Z,5.68
2022-08-29T08:44:06.747Z,5.70
2022-08-29T08:46:09.717Z,5.90
2022-08-29T08:48:22.219Z,6.10
2022-08-29T08:50:27.987Z,5.07
2022-08-29T08:52:44.274Z,5.70
2022-08-29T08:55:04.082Z,5.55
2022-08-29T08:57:15.727Z,5.80
2022-08-29T08:59:32.987Z,5.18
2022-08-29T09:01:58.771Z,5.82
2022-08-29T09:04:36.318Z,5.43
2022-08-29T09:06:59.910Z,5.80
2022-08-29T09:09:18.138Z,5.22
2022-08-29T09:11:44.263Z,5.30
2022-08-29T09:13:56.834Z,4.13
2022-08-29T09:16:01.408Z,4.75
2022-08-29T09:18:16.343Z,4.28
2022-08-29T09:20:26.352Z,4.43
2022-08-29T09:22:33.021Z,4.30
2022-08-29T09:24:49.141Z,4.50
2022-08-29T09:26:52.329Z,4.63
2022-08-29T09:28:55.417Z,4.30
2022-08-29T09:31:19.947Z,5.10
2022-08-29T09:33:22.692Z,4.32
2022-08-29T09:35:36.996Z,4.13
2022-08-29T09:37:42.128Z,4.50
2022-08-29T09:39:59.128Z,3.97
2022-08-29T09:42:19.308Z,3.78
2022-08-29T09:44:30.311Z,3.83
2022-08-29T09:46:32.402Z,3.95
2022-08-29T09:48:37.271Z,3.90
2022-08-29T09:50:39.930Z,4.18
2022-08-29T09:52:52.874Z,4.18
2022-08-29T09:54:55.741Z,3.80
2022-08-29T09:57:27.642Z,3.70
2022-08-29T09:59:36.319Z,4.10
2022-08-29T10:01:39.638Z,3.70
2022-08-29T10:03:45.103Z,4.25
2022-08-29T10:05:49.314Z,4.00
2022-08-29T10:07:56.261Z,3.30
2022-08-29T10:10:01.415Z,4.20
2022-08-29T10:12:13.910Z,4.03
2022-08-29T10:14:31.294Z,3.80
2022-08-29T10:16:57.410Z,3.50
2022-08-29T10:19:01.416Z,5.47
2022-08-29T10:21:25.686Z,4.25
2022-08-29T10:23:50.970Z,4.43
2022-08-29T10:25:54.337Z,4.57
2022-08-29T10:28:25.098Z,3.92
2022-08-29T10:30:37.488Z,4.53
2022-08-29T10:33:01.907Z,4.53
2022-08-29T10:35:20.307Z,5.15
2022-08-29T10:37:46.519Z,5.97
2022-08-29T10:39:54.000Z,5.32
2022-08-29T10:42:11.461Z,4.75
2022-08-29T10:44:36.041Z,4.90
2022-08-29T10:46:47.319Z,5.20
2022-08-29T10:48:51.851Z,4.70
2022-08-29T10:51:05.334Z,4.35
2022-08-29T10:53:27.820Z,4.97
2022-08-29T10:55:45.224Z,4.32
2022-08-29T10:58:12.444Z,5.28
2022-08-29T11:00:23.301Z,4.65
2022-08-29T11:02:36.973Z,4.53
2022-08-29T11:04:55.155Z,5.55
2022-08-29T11:07:18.394Z,4.72
2022-08-29T11:09:32.115Z,5.72
2022-08-29T11:11:36.479Z,5.85
2022-08-29T11:14:03.510Z,5.20
2022-08-29T11:16:18.421Z,5.10
2022-08-29T11:18:23.971Z,5.57
2022-08-29T11:20:32.457Z,5.35
2022-08-29T11:23:07.358Z,5.32
2022-08-29T11:25:17.629Z,5.47
2022-08-29T11:27:26.786Z,5.88
2022-08-29T11:29:53.489Z,5.90
2022-08-29T11:32:12.921Z,5.28
2022-08-29T11:34:45.225Z,6.53
2022-08-29T11:37:06.376Z,5.25
2022-08-29T11:39:14.390Z,4.53
2022-08-29T11:41:29.368Z,4.72
2022-08-29T11:43:41.363Z,5.38
2022-08-29T11:45:54.873Z,4.80
2022-08-29T11:48:01.327Z,4.60
2022-08-29T11:50:34.927Z,4.68
2022-08-29T11:52:37.676Z,4.40
2022-08-29T11:54:40.710Z,4.60
2022-08-29T11:56:42.508Z,4.20
2022-08-29T11:58:55.177Z,4.20
2022-08-29T12:00:59.448Z,4.57
2022-08-29T12:03:04.388Z,4.05
2022-08-29T12:05:30.570Z,4.13
2022-08-29T12:07:41.415Z,4.13
2022-08-29T12:09:46.062Z,4.43
2022-08-29T12:12:06.390Z,3.85
2022-08-29T12:14:08.213Z,4.00
2022-08-29T12:16:12.137Z,4.10
2022-08-29T12:18:20.250Z,4.65
2022-08-29T12:20:31.256Z,4.30
2022-08-29T12:22:49.450Z,5.07
2022-08-29T12:24:57.478Z,4.68
2022-08-29T12:27:01.497Z,4.70
2022-08-29T12:29:10.590Z,4.65
2022-08-29T12:31:24.735Z,4.90
2022-08-29T12:33:45.623Z,4.50
2022-08-29T12:36:27.274Z,4.95
2022-08-29T12:38:30.015Z,4.93
2022-08-29T12:40:42.604Z,5.75
2022-08-29T12:43:11.233Z,4.78
2022-08-29T12:45:25.724Z,4.82
2022-08-29T12:47:33.616Z,5.15
